ADDS METAR Data INFO
IDs: Format: Raw Decoded Include TAF

Data at: 1750 UTC 21 Oct 2017

KGWR 211735Z AUTO 29011KT 10SM OVC065 15/06 A2954 RMK A01
KGWR 211715Z AUTO 29010G16KT 10SM OVC065 15/05 A2954 RMK A01
KGWR 211655Z AUTO 29010G18KT 10SM SCT070 15/06 A2953 RMK A01
KGWR 211635Z AUTO 30012G18KT 10SM CLR 16/06 A2953 RMK A01
KGWR 211615Z AUTO 30015KT 10SM CLR 15/06 A2952 RMK A01
KGWR 211555Z AUTO 27013G19KT 10SM CLR 15/06 A2952 RMK A01
KGWR 211535Z AUTO 29017KT 10SM CLR 15/06 A2952 RMK A01
KGWR 211515Z AUTO 28012G18KT 10SM CLR 14/06 A2951 RMK A01
KGWR 211455Z AUTO 28010G16KT 10SM CLR 14/05 A2950 RMK A01
KGWR 211435Z AUTO 27009KT 10SM CLR 14/07 A2950 RMK A01
KGWR 211415Z AUTO 27007KT 10SM CLR 13/09 A2949 RMK A01
KGWR 211355Z AUTO 28007KT 10SM CLR 13/10 A2947 RMK A01
KGWR 211335Z AUTO 26006KT 10SM CLR 13/11 A2946 RMK A01
KGWR 211315Z AUTO 28004KT 10SM FEW039 14/12 A2943 RMK A01
KGWR 211255Z AUTO 25006KT 10SM BKN037 15/13 A2944 RMK A01
KGWR 211235Z AUTO 23008KT 10SM FEW024 OVC034 17/14 A2944 RMK A01
KGWR 211215Z AUTO 22008KT 10SM SCT027 OVC034 18/15 A2943 RMK A01
KGWR 211155Z AUTO 21009KT 10SM BKN030 BKN036 18/15 A2942 RMK A01
KGWR 211135Z AUTO 20009KT 10SM SCT036 17/14 A2942 RMK A01
KGWR 211115Z AUTO 19008KT 10SM CLR 18/15 A2941 RMK A01
KGWR 211055Z AUTO 19013KT 10SM CLR 18/15 A2940 RMK A01
KGWR 211035Z AUTO 18010G17KT 10SM CLR 18/14 A2940 RMK A01
KGWR 211015Z AUTO 18013G23KT 10SM CLR 18/15 A2939 RMK A01
KGWR 210955Z AUTO 20014G25KT 10SM CLR 19/15 A2938 RMK A01
KGWR 210935Z AUTO 19014KT 10SM CLR 19/14 A2937 RMK A01
KGWR 210915Z AUTO 19014G20KT 10SM CLR 19/14 A2938 RMK A01
KGWR 210855Z AUTO 18014G20KT 10SM CLR 19/14 A2937 RMK A01
KGWR 210835Z AUTO 18013G21KT 10SM CLR 19/14 A2937 RMK A01
KGWR 210815Z AUTO 18014G19KT 10SM CLR 19/14 A2938 RMK A01
KGWR 210755Z AUTO 17012KT 10SM CLR 19/14 A2938 RMK A01
KGWR 210735Z AUTO 17011G16KT 10SM CLR 19/14 A2938 RMK A01
KGWR 210715Z AUTO 17011G18KT 10SM CLR 19/14 A2938 RMK A01
KGWR 210655Z AUTO 18011G19KT 10SM CLR 19/14 A2938 RMK A01
KGWR 210635Z AUTO 17013G18KT 10SM CLR 20/14 A2938 RMK A01
KGWR 210615Z AUTO 18014KT 10SM CLR 20/14 A2938 RMK A01
KGWR 210555Z AUTO 17014G22KT 10SM CLR 20/14 A2939 RMK A01
KGWR 210535Z AUTO 18013KT 10SM CLR 19/14 A2939 RMK A01
KGWR 210515Z AUTO 17010KT 10SM CLR 19/14 A2939 RMK A01
KGWR 210455Z AUTO 17011G16KT 10SM CLR 19/14 A2940 RMK A01
KGWR 210435Z AUTO 17012G18KT 10SM CLR 19/14 A2940 RMK A01
KGWR 210415Z AUTO 17013KT 10SM CLR 20/14 A2939 RMK A01
KGWR 210355Z AUTO 17013G22KT 10SM CLR 20/14 A2940 RMK A01
KGWR 210335Z AUTO 17016KT 10SM CLR 20/14 A2941 RMK A01
KGWR 210315Z AUTO 17016G21KT 10SM CLR 20/13 A2941 RMK A01
KGWR 210255Z AUTO 17017G23KT 10SM CLR 20/13 A2941 RMK A01
KGWR 210235Z AUTO 17015G22KT 10SM CLR 20/13 A2942 RMK A01
KGWR 210215Z AUTO 16014KT 10SM CLR 19/13 A2942 RMK A01
KGWR 210155Z AUTO 17016G21KT 10SM CLR 20/12 A2942 RMK A01
KGWR 210135Z AUTO 17014KT 10SM CLR 19/12 A2942 RMK A01
KGWR 210115Z AUTO 17015KT 10SM CLR 20/12 A2942 RMK A01
KGWR 210055Z AUTO 17014G21KT 10SM CLR 20/12 A2943 RMK A01
KGWR 210035Z AUTO 17014G19KT 10SM CLR 20/12 A2943 RMK A01
KGWR 210015Z AUTO 17015G20KT 10SM CLR 21/12 A2943 RMK A01
KGWR 202355Z AUTO 18015G21KT 10SM CLR 21/13 A2942 RMK A01
KGWR 202335Z AUTO 18016G21KT 10SM CLR 21/13 A2942 RMK A01
KGWR 202315Z AUTO 18017G23KT 10SM CLR 22/13 A2942 RMK A01
KGWR 202255Z AUTO 18017G23KT 10SM CLR 22/12 A2942 RMK A01
KGWR 202235Z AUTO 18019G25KT 10SM CLR 22/12 A2942 RMK A01
KGWR 202215Z AUTO 18018G25KT 10SM CLR 23/12 A2942 RMK A01
KGWR 202155Z AUTO 18022G31KT 10SM CLR 23/12 A2943 RMK A01
KGWR 202135Z AUTO 19023G33KT 10SM CLR 25/12 A2943 RMK A01
KGWR 202115Z AUTO 18026G32KT 10SM CLR 25/12 A2944 RMK A01
KGWR 202055Z AUTO 18016G23KT 10SM CLR 25/12 A2944 RMK A01
KGWR 202035Z AUTO 16012KT 10SM CLR 23/12 A2945 RMK A01
KGWR 202015Z AUTO 16011G17KT 10SM CLR 22/12 A2946 RMK A01
KGWR 201955Z AUTO 18016G23KT 10SM CLR 22/11 A2947 RMK A01
KGWR 201935Z AUTO 18017G25KT 10SM CLR 23/11 A2947 RMK A01
KGWR 201915Z AUTO 18020G26KT 10SM CLR 23/11 A2948 RMK A01
KGWR 201855Z AUTO 17018G24KT 10SM CLR 22/11 A2949 RMK A01
KGWR 201835Z AUTO 17016G27KT 10SM CLR 22/11 A2950 RMK A01
KGWR 201815Z AUTO 18016G24KT 10SM CLR 21/10 A2951 RMK A01
KGWR 201755Z AUTO 18022KT 10SM CLR 22/10 A2952 RMK A01
KGWR 201735Z AUTO 18018G25KT 10SM CLR 21/10 A2953 RMK A01
KGWR 201715Z AUTO 18021G30KT 10SM CLR 20/10 A2955 RMK A01
KGWR 201655Z AUTO 17020G26KT 10SM CLR 21/10 A2955 RMK A01
KGWR 201635Z AUTO 18019KT 10SM CLR 21/10 A2956 RMK A01
KGWR 201615Z AUTO 18015G21KT 10SM CLR 20/10 A2957 RMK A01
KGWR 201555Z AUTO 18019G24KT 10SM CLR 19/09 A2957 RMK A01
KGWR 201535Z AUTO 18020G25KT 10SM CLR 19/09 A2958 RMK A01
KGWR 201515Z AUTO 18016G23KT 10SM CLR 19/09 A2959 RMK A01
KGWR 201455Z AUTO 18016G21KT 10SM CLR 18/09 A2959 RMK A01
KGWR 201435Z AUTO 18013G20KT 10SM CLR 17/09 A2959 RMK A01
KGWR 201415Z AUTO 18013G18KT 10SM CLR 16/09 A2959 RMK A01
KGWR 201355Z AUTO 18012KT 10SM CLR 16/09 A2960 RMK A01
KGWR 201335Z AUTO 19015KT 10SM CLR 15/09 A2959 RMK A01
KGWR 201315Z AUTO 20016KT 10SM CLR 15/09 A2959 RMK A01
KGWR 201255Z AUTO 20013G18KT 10SM CLR 15/09 A2960 RMK A01
KGWR 201235Z AUTO 20015KT 10SM CLR 15/09 A2960 RMK A01
KGWR 201215Z AUTO 20015KT 10SM CLR 15/09 A2961 RMK A01
KGWR 201155Z AUTO 20015KT 10SM CLR 15/09 A2961 RMK A01
KGWR 201135Z AUTO 20015KT 10SM CLR 15/09 A2962 RMK A01
KGWR 201115Z AUTO 20014KT 10SM CLR 15/09 A2962 RMK A01
KGWR 201055Z AUTO 20013G19KT 10SM CLR 15/09 A2963 RMK A01
KGWR 201035Z AUTO 20013KT 10SM CLR 15/09 A2963 RMK A01
KGWR 201015Z AUTO 20013KT 10SM CLR 15/09 A2963 RMK A01
KGWR 200955Z AUTO 20013KT 10SM CLR 14/10 A2964 RMK A01
KGWR 200935Z AUTO 20011KT 10SM CLR 14/10 A2965 RMK A01
KGWR 200915Z AUTO 20012KT 10SM CLR 14/10 A2965 RMK A01
KGWR 200855Z AUTO 20011G16KT 10SM CLR 14/10 A2966 RMK A01
KGWR 200835Z AUTO 20011KT 10SM CLR 14/10 A2967 RMK A01
KGWR 200815Z AUTO 20008KT 10SM CLR 13/09 A2968 RMK A01
KGWR 200755Z AUTO 20008KT 10SM 13/09 A2968 RMK A01
KGWR 200735Z AUTO 21007KT 10SM 12/09 A2969 RMK A01
KGWR 200715Z AUTO 00000KT 10SM 12/09 A2969 RMK A01
KGWR 200655Z AUTO 21007KT 10SM 13/09 A2970 RMK A01
KGWR 200635Z AUTO 21008KT 10SM 12/09 A2970 RMK A01
KGWR 200615Z AUTO 00000KT 10SM 11/08 A2971 RMK A01
KGWR 200555Z AUTO 21006KT 10SM 10/08 A2971 RMK A01